Portada
METAR-TAF:

METAR-TAF

Aeropuertos :

Aeropuerto de Tetuán-Sania Ramel

Tetuán, Marruecos

latitud: 35-35N, longitud: 005-20W, altitud: 10 m

Observación

El informe se hizo hace 34 minutos, a las 08:00 UTC
Viento 13 kt del oeste, variando entre suroeste y oeste-noroeste
Temperatura 18°C
Humedad 59%
Presión 1014 hPa
Visibilidad 10 km o más
Nubes dispersas a una altura de 1600 ft
Nubes dispersas a una altura de 3000 ft

METAR: GMTN 150800Z 27013KT 230V300 9999 SCT016 SCT030 18/10 Q1014 NOSIG

Hora: 09:34 (08:34 UTC)


TAF: falta

Observaciones y pronósticos meteorológicos de más de 4000 aeropuertos (mensajes METAR y TAF).

Los puntos amarillos y rojos representan las estaciones disponibles.

Ponga el ratón en el punto deseado para ver el nombre de la estación.

Haga clic para ver las observaciones y los pronósticos meteorológicos.

Para cambiar el mapa : haga clic en los botones verdes con una cruz de color negro para hacer un zoom, en el botón verde con un guión para alejar o en las flechas verdes para mapas adyacentes.


METAR-TAF: